Time;durP1;ratioP1;P1;durP2;ratioP2;P2;SDS_P1;SDS_P2;PMS_P1;PMS_P2;Temp;Humidity;BMP_temperature;BMP_pressure;BME280_temperature;BME280_humidity;BME280_pressure;Samples;Min_cycle;Max_cycle;Signal;HPM_P1;HPM_P2
2022/05/26 00:02:22;;;;;;;;;3.00;2.75;;;;;17.63;64.80;101868.88;5059905;28;46596;-65
2022/05/26 00:04:47;;;;;;;;;3.75;2.00;;;;;17.57;65.55;101869.94;5059531;28;45619;-66
2022/05/26 00:07:13;;;;;;;;;1.50;1.50;;;;;17.52;65.06;101874.53;5059887;28;45362;-66
2022/05/26 00:09:38;;;;;;;;;2.00;2.00;;;;;17.45;65.74;101877.47;5059425;28;45891;-67
2022/05/26 00:12:04;;;;;;;;;1.00;1.00;;;;;17.40;65.71;101868.88;5059313;28;45425;-68
2022/05/26 00:14:30;;;;;;;;;2.75;1.00;;;;;17.39;65.49;101875.03;5059575;28;45637;-68
2022/05/26 00:16:56;;;;;;;;;1.00;1.00;;;;;17.37;65.71;101874.25;5060805;28;45319;-67
2022/05/26 00:19:21;;;;;;;;;1.75;1.00;;;;;17.37;65.88;101875.09;5060890;28;45413;-68
2022/05/26 00:21:49;;;;;;;;;4.25;1.00;;;;;17.33;65.98;101870.88;5061047;28;45991;-67
2022/05/26 00:24:18;;;;;;;;;1.75;1.75;;;;;17.33;66.57;101884.03;5061163;28;45593;-66
2022/05/26 00:26:44;;;;;;;;;3.25;1.00;;;;;17.28;67.09;101884.19;5060625;28;45154;-67
2022/05/26 00:29:10;;;;;;;;;2.75;1.00;;;;;17.25;66.90;101878.22;5059784;28;45699;-68
2022/05/26 00:31:35;;;;;;;;;2.75;1.00;;;;;17.15;66.49;101875.03;5059907;28;46343;-68
2022/05/26 00:34:01;;;;;;;;;2.00;1.00;;;;;17.13;66.38;101878.63;5058646;28;45634;-68
2022/05/26 00:36:39;;;;;;;;;3.50;1.00;;;;;17.10;66.95;101881.38;5058559;28;45687;-66
2022/05/26 00:39:11;;;;;;;;;2.75;1.00;;;;;17.07;67.42;101887.59;5058563;28;45392;-68
2022/05/26 00:41:42;;;;;;;;;2.50;0.75;;;;;17.05;66.71;101889.44;5056181;28;45891;-68
2022/05/26 00:44:08;;;;;;;;;1.00;1.00;;;;;17.11;66.69;101888.34;5058319;28;45744;-68
2022/05/26 00:46:52;;;;;;;;;3.00;1.00;;;;;17.13;67.04;101891.78;5059124;28;46626;-68
2022/05/26 00:49:33;;;;;;;;;1.25;1.00;;;;;17.09;66.37;101885.78;5060469;28;45459;-67
2022/05/26 00:51:59;;;;;;;;;1.50;1.00;;;;;17.11;66.41;101888.34;5060785;28;46466;-68
2022/05/26 00:54:26;;;;;;;;;1.75;1.75;;;;;17.11;66.57;101897.09;5060833;28;45265;-66
2022/05/26 00:57:01;;;;;;;;;2.00;0.75;;;;;17.15;66.27;101896.06;5060665;28;45431;-68
2022/05/26 00:59:26;;;;;;;;;2.00;2.00;;;;;17.17;66.56;101896.84;5060531;28;45338;-68
2022/05/26 01:01:53;;;;;;;;;1.00;1.00;;;;;17.18;66.67;101901.19;5060732;28;45316;-69
2022/05/26 01:04:22;;;;;;;;;0.25;0.25;;;;;17.16;67.22;101905.66;5060610;28;45266;-69
2022/05/26 01:06:50;;;;;;;;;2.50;0.75;;;;;17.19;66.28;101908.16;5061002;28;45358;-69
2022/05/26 01:09:15;;;;;;;;;0.50;0.50;;;;;17.21;66.48;101898.44;5060528;28;45414;-68
2022/05/26 01:11:43;;;;;;;;;2.00;1.00;;;;;17.22;66.15;101899.31;5060471;28;46465;-68
2022/05/26 01:14:27;;;;;;;;;0.50;0.50;;;;;17.25;66.06;101892.19;5060149;28;45180;-68
2022/05/26 01:16:56;;;;;;;;;1.00;1.00;;;;;17.27;66.50;101895.63;5060604;28;45279;-68
2022/05/26 01:19:44;;;;;;;;;2.75;0.50;;;;;17.26;66.13;101900.94;5060121;28;45315;-67
2022/05/26 01:22:39;;;;;;;;;1.25;1.00;;;;;17.19;66.31;101897.66;5060013;28;46188;-67
2022/05/26 01:25:13;;;;;;;;;0.00;0.00;;;;;17.17;66.07;101891.59;5060305;28;45261;-69
2022/05/26 01:27:45;;;;;;;;;2.00;1.00;;;;;17.12;66.70;101906.69;5060166;28;45340;-69
2022/05/26 01:30:13;;;;;;;;;1.00;1.00;;;;;17.06;67.46;101900.81;5060186;28;45512;-69
2022/05/26 01:33:00;;;;;;;;;0.00;0.00;;;;;16.97;68.62;101913.31;5060296;28;45750;-69
2022/05/26 01:35:33;;;;;;;;;1.50;0.00;;;;;16.88;70.02;101912.81;5059790;28;45505;-69
2022/05/26 01:38:08;;;;;;;;;0.75;0.00;;;;;16.83;69.56;101917.38;5060185;28;45351;-68
2022/05/26 01:41:14;;;;;;;;;0.00;0.00;;;;;16.77;72.21;101931.53;5060257;28;45292;-68
2022/05/26 01:44:04;;;;;;;;;2.75;2.00;;;;;16.61;72.02;101912.78;5046968;28;45547;-69
2022/05/26 01:46:41;;;;;;;;;2.00;1.00;;;;;16.61;71.72;101918.03;5059916;28;45371;-68
2022/05/26 01:49:18;;;;;;;;;1.00;1.00;;;;;16.51;73.52;101908.78;5060127;28;45469;-68
2022/05/26 01:52:12;;;;;;;;;1.25;0.75;;;;;16.36;74.01;101911.91;5058251;28;45662;-68
2022/05/26 01:54:58;;;;;;;;;1.00;1.00;;;;;16.30;74.40;101914.72;5059866;28;46506;-68
2022/05/26 01:57:50;;;;;;;;;0.25;0.25;;;;;16.30;74.32;101915.59;5058875;28;45344;-68
2022/05/26 02:00:18;;;;;;;;;1.00;1.00;;;;;16.29;74.46;101915.66;5047248;28;45462;-68
2022/05/26 02:03:01;;;;;;;;;1.00;1.00;;;;;16.33;75.60;101912.88;5057311;28;45546;-68
2022/05/26 02:05:31;;;;;;;;;3.00;1.00;;;;;16.34;74.41;101924.22;5057205;28;46235;-68
2022/05/26 02:08:13;;;;;;;;;0.00;0.00;;;;;16.31;74.90;101926.94;5057271;28;45770;-68
2022/05/26 02:10:55;;;;;;;;;1.00;1.00;;;;;16.39;74.72;101911.78;5057503;28;45429;-68
2022/05/26 02:13:30;;;;;;;;;1.25;1.25;;;;;16.51;74.06;101914.03;5057091;28;45642;-67
2022/05/26 02:16:19;;;;;;;;;0.75;0.00;;;;;16.56;75.04;101911.25;5057082;28;46270;-68
2022/05/26 02:18:55;;;;;;;;;0.25;0.25;;;;;16.57;74.31;101907.72;5059151;28;45449;-67
2022/05/26 02:21:35;;;;;;;;;0.00;0.00;;;;;16.57;74.91;101919.06;5047725;28;45367;-68
2022/05/26 02:24:04;;;;;;;;;1.25;1.25;;;;;16.55;74.08;101918.25;5055801;28;45470;-67
2022/05/26 02:26:32;;;;;;;;;1.25;1.00;;;;;16.52;75.16;101922.75;5057114;28;45564;-67
2022/05/26 02:31:43;;;;;;;;;1.00;1.00;;;;;16.39;75.49;101928.41;5057291;28;45561;-67
2022/05/26 02:34:13;;;;;;;;;2.75;2.00;;;;;16.32;76.77;101945.25;5057456;28;45606;-67
2022/05/26 02:36:42;;;;;;;;;3.75;2.00;;;;;16.23;78.68;101939.47;5061968;28;45594;-67
2022/05/26 02:39:07;;;;;;;;;3.25;2.00;;;;;16.10;78.55;101937.22;5063175;28;45610;-67
2022/05/26 02:41:34;;;;;;;;;3.00;1.00;;;;;16.01;78.13;101934.84;5063035;28;45728;-68
2022/05/26 02:44:00;;;;;;;;;2.75;2.00;;;;;16.00;77.73;101935.75;5062571;28;45181;-68
2022/05/26 02:46:32;;;;;;;;;3.25;3.00;;;;;15.98;79.00;101940.19;5062581;28;45500;-67
2022/05/26 02:49:25;;;;;;;;;2.00;2.00;;;;;15.94;79.59;101938.59;5062660;28;45240;-67
2022/05/26 02:52:13;;;;;;;;;2.50;2.00;;;;;15.82;81.41;101937.22;5061514;28;45294;-68
2022/05/26 02:55:03;;;;;;;;;2.00;2.00;;;;;15.59;80.80;101917.81;5062602;28;45268;-67
2022/05/26 02:57:49;;;;;;;;;1.00;1.00;;;;;15.76;81.04;101941.75;5062488;28;46526;-67
2022/05/26 03:00:29;;;;;;;;;1.75;1.75;;;;;15.77;81.39;101930.38;5051964;28;45371;-67
2022/05/26 03:03:33;;;;;;;;;2.00;2.00;;;;;15.71;83.49;101935.81;5062659;28;45509;-67
2022/05/26 03:06:07;;;;;;;;;1.00;0.50;;;;;15.60;83.17;101933.47;5024932;28;45262;-67
2022/05/26 03:08:39;;;;;;;;;1.00;1.00;;;;;15.56;83.89;101933.59;5062033;28;46154;-67
2022/05/26 03:11:11;;;;;;;;;2.00;2.00;;;;;15.58;82.79;101934.41;5060930;28;45415;-67
2022/05/26 03:13:38;;;;;;;;;0.75;0.75;;;;;15.63;82.92;101937.81;5062335;28;45298;-67
2022/05/26 03:16:05;;;;;;;;;0.00;0.00;;;;;15.64;83.70;101936.91;5062283;28;45450;-67
2022/05/26 03:18:31;;;;;;;;;0.25;0.00;;;;;15.65;83.83;101946.47;5062176;28;46495;-67
2022/05/26 03:21:00;;;;;;;;;1.00;1.00;;;;;15.60;84.24;101946.59;5061950;28;45318;-67
2022/05/26 03:23:26;;;;;;;;;0.00;0.00;;;;;15.54;84.64;101951.97;5059469;28;45405;-67
2022/05/26 03:25:57;;;;;;;;;0.00;0.00;;;;;15.41;85.14;101946.22;5062208;28;45440;-67
2022/05/26 03:28:27;;;;;;;;;1.00;1.00;;;;;15.30;85.56;101940.44;5061901;28;46405;-67
2022/05/26 03:30:52;;;;;;;;;1.00;1.00;;;;;15.20;86.94;101945.06;5062005;28;45322;-67
2022/05/26 03:33:18;;;;;;;;;0.00;0.00;;;;;15.08;86.46;101945.41;5062366;28;45497;-67
2022/05/26 03:41:20;;;;;;;;;1.00;0.00;;;;;15.05;84.37;101940.25;5053404;28;45821;-67
2022/05/26 03:43:54;;;;;;;;;0.00;0.00;;;;;15.12;84.72;101943.56;5061568;28;45352;-67
2022/05/26 03:46:20;;;;;;;;;0.25;0.25;;;;;15.22;85.10;101939.81;5060905;28;45290;-67
2022/05/26 03:48:45;;;;;;;;;0.50;0.50;;;;;15.31;84.57;101947.41;5061767;28;45493;-67
2022/05/26 03:51:10;;;;;;;;;0.00;0.00;;;;;15.42;84.13;101944.50;5060703;28;45328;-69
2022/05/26 03:53:36;;;;;;;;;1.75;0.00;;;;;15.51;83.60;101944.22;5061768;28;45334;-68
2022/05/26 03:56:04;;;;;;;;;0.25;0.25;;;;;15.56;83.36;101947.56;5061742;28;45493;-68
2022/05/26 03:58:29;;;;;;;;;0.50;0.50;;;;;15.63;83.25;101961.38;5061156;28;45497;-67
2022/05/26 04:00:54;;;;;;;;;0.00;0.00;;;;;15.69;82.67;101959.44;5061609;28;45347;-67
2022/05/26 04:03:20;;;;;;;;;0.00;0.00;;;;;15.77;82.70;101956.56;5061654;28;45264;-68
2022/05/26 04:05:45;;;;;;;;;1.00;0.75;;;;;15.85;82.38;101967.72;5059527;28;45220;-67
2022/05/26 04:08:11;;;;;;;;;1.00;0.00;;;;;15.91;81.92;101966.66;5061405;28;45590;-66
2022/05/26 04:10:37;;;;;;;;;0.75;0.75;;;;;15.95;81.72;101969.13;5061453;28;45380;-67
2022/05/26 04:13:03;;;;;;;;;1.50;1.00;;;;;15.93;82.00;101968.34;5061271;28;45360;-66
2022/05/26 04:15:28;;;;;;;;;1.00;1.00;;;;;15.91;81.47;101972.75;5061406;28;45177;-66
2022/05/26 04:17:54;;;;;;;;;1.50;0.00;;;;;15.94;81.37;101971.81;5061248;28;46426;-67
2022/05/26 04:20:22;;;;;;;;;0.75;0.75;;;;;15.99;81.47;101978.63;5060924;28;45255;-68
2022/05/26 04:22:47;;;;;;;;;0.75;0.75;;;;;16.02;81.46;101978.56;5061610;28;45448;-68
2022/05/26 04:25:14;;;;;;;;;1.00;0.25;;;;;16.02;81.64;101973.31;5061246;28;45426;-68
2022/05/26 04:27:40;;;;;;;;;1.00;1.00;;;;;16.02;81.52;101975.94;5061030;28;45372;-68
2022/05/26 04:30:08;;;;;;;;;1.00;1.00;;;;;16.02;81.53;101978.56;5059888;28;45570;-68
2022/05/26 04:32:34;;;;;;;;;1.00;1.00;;;;;16.03;81.34;101976.78;5094120;27;45387;-68
2022/05/26 04:34:59;;;;;;;;;1.00;0.00;;;;;16.08;81.46;101980.97;5060640;28;45170;-67
2022/05/26 04:37:26;;;;;;;;;4.50;2.00;;;;;16.13;81.02;101986.94;5060885;28;45394;-68
2022/05/26 04:39:55;;;;;;;;;3.00;2.00;;;;;16.17;81.28;101992.94;5060854;28;45320;-68
2022/05/26 04:42:21;;;;;;;;;2.00;1.00;;;;;16.16;80.94;101999.09;5060988;28;45310;-68
2022/05/26 04:44:47;;;;;;;;;3.00;1.00;;;;;16.17;80.54;101989.47;5060544;28;45483;-68
2022/05/26 04:47:13;;;;;;;;;4.00;2.00;;;;;16.20;80.62;101998.09;5060625;28;45342;-68
2022/05/26 04:49:39;;;;;;;;;1.25;1.25;;;;;16.26;80.24;102002.31;5059758;28;45847;-68
2022/05/26 04:52:11;;;;;;;;;2.75;0.75;;;;;16.26;80.25;101997.06;5061015;28;45343;-68
2022/05/26 04:54:36;;;;;;;;;4.00;1.25;;;;;16.27;80.15;102002.25;5060715;28;45275;-68
2022/05/26 04:57:03;;;;;;;;;1.75;1.25;;;;;16.31;80.42;101993.38;5058590;28;45442;-66
2022/05/26 04:59:30;;;;;;;;;2.00;2.00;;;;;16.28;79.39;102000.50;5060478;28;45535;-67
2022/05/26 05:01:56;;;;;;;;;1.00;1.00;;;;;16.27;80.04;102006.66;5060865;28;45401;-66
2022/05/26 05:04:24;;;;;;;;;1.00;0.00;;;;;16.25;79.93;102011.09;5059924;28;45360;-66
2022/05/26 05:06:50;;;;;;;;;2.00;2.00;;;;;16.24;79.11;102012.84;5058443;28;46255;-66
2022/05/26 05:09:15;;;;;;;;;2.75;1.75;;;;;16.27;79.36;102012.75;5091230;27;45716;-65
2022/05/26 05:11:41;;;;;;;;;2.00;2.00;;;;;16.31;79.29;102008.28;5059780;28;45273;-66
2022/05/26 05:14:06;;;;;;;;;2.50;2.25;;;;;16.33;78.86;102009.94;5059384;28;45435;-65
2022/05/26 05:16:34;;;;;;;;;2.50;2.00;;;;;16.36;79.32;102024.72;5059498;28;45495;-65
2022/05/26 05:19:01;;;;;;;;;2.00;2.00;;;;;16.34;78.49;102010.78;5056750;28;45392;-65
2022/05/26 05:21:33;;;;;;;;;2.00;2.00;;;;;16.35;78.69;102018.59;5059083;28;45455;-65
2022/05/26 05:24:06;;;;;;;;;1.00;1.00;;;;;16.38;79.03;102021.13;5059252;28;45264;-65
2022/05/26 05:26:36;;;;;;;;;4.00;2.00;;;;;16.39;78.68;102009.72;5059548;28;46576;-65
2022/05/26 05:29:09;;;;;;;;;5.00;1.00;;;;;16.46;78.34;102020.06;5056608;28;45730;-65
2022/05/26 05:31:40;;;;;;;;;6.00;3.00;;;;;16.52;77.86;102028.59;5059051;28;46232;-66
2022/05/26 05:34:37;;;;;;;;;1.50;1.50;;;;;16.64;78.31;102030.81;5060092;28;45512;-66
2022/05/26 05:37:03;;;;;;;;;0.75;0.75;;;;;16.66;77.91;102031.66;5074093;28;47360;-66
2022/05/26 05:39:29;;;;;;;;;2.75;1.50;;;;;16.71;77.43;102032.38;5059861;28;45560;-67
2022/05/26 05:41:55;;;;;;;;;1.50;1.50;;;;;16.71;77.49;102034.13;5058578;28;45519;-67
2022/05/26 05:44:21;;;;;;;;;1.50;1.00;;;;;16.74;77.56;102031.41;5059741;28;45308;-67
2022/05/26 05:46:57;;;;;;;;;2.00;2.00;;;;;16.78;77.15;102030.41;5059437;28;45362;-67
2022/05/26 05:49:28;;;;;;;;;3.25;2.00;;;;;16.85;76.51;102034.56;5059365;28;45318;-67
2022/05/26 05:51:54;;;;;;;;;2.25;1.00;;;;;16.90;76.21;102042.28;5059541;28;45364;-66
2022/05/26 05:54:20;;;;;;;;;1.25;1.00;;;;;16.92;76.18;102038.69;5059990;28;45454;-67
2022/05/26 05:56:46;;;;;;;;;1.00;1.00;;;;;16.97;76.22;102038.53;5059484;28;46512;-67
2022/05/26 05:59:13;;;;;;;;;1.75;1.75;;;;;17.03;75.80;102054.09;5058020;28;45443;-68
2022/05/26 06:01:39;;;;;;;;;2.00;1.00;;;;;17.02;75.23;102048.00;5058508;28;45277;-68
2022/05/26 06:04:05;;;;;;;;;3.00;3.00;;;;;16.98;75.24;102048.13;5059700;28;45370;-68
2022/05/26 06:06:36;;;;;;;;;2.75;2.00;;;;;16.97;75.69;102044.63;5059231;28;46168;-67
2022/05/26 06:09:01;;;;;;;;;2.00;2.00;;;;;17.03;75.75;102054.09;5057066;28;45413;-67
2022/05/26 06:11:27;;;;;;;;;3.25;1.00;;;;;17.15;75.82;102055.44;5058487;28;45365;-67
2022/05/26 06:13:53;;;;;;;;;1.75;1.75;;;;;17.20;74.38;102059.63;5059308;28;45338;-67
2022/05/26 06:16:18;;;;;;;;;3.00;2.00;;;;;17.18;74.37;102060.59;5059562;28;47062;-67
2022/05/26 06:18:43;;;;;;;;;1.25;1.25;;;;;17.12;74.92;102061.66;5059286;28;45337;-68
2022/05/26 06:21:08;;;;;;;;;1.25;1.25;;;;;17.12;73.62;102069.53;5059156;28;45405;-68
2022/05/26 06:23:34;;;;;;;;;2.00;1.00;;;;;17.05;74.07;102069.81;5059394;28;45322;-66
2022/05/26 06:25:59;;;;;;;;;2.50;1.00;;;;;16.95;74.19;102079.75;5059109;28;46534;-66
2022/05/26 06:31:09;;;;;;;;;1.00;1.00;;;;;16.91;74.54;102086.00;5059389;28;45371;-67
2022/05/26 06:39:06;;;;;;;;;3.25;2.00;;;;;16.69;77.71;102102.44;5048495;28;45646;-67
2022/05/26 06:44:17;;;;;;;;;0.00;0.00;;;;;16.84;77.67;102116.00;5059001;28;45168;-66
2022/05/26 06:46:43;;;;;;;;;1.50;1.00;;;;;16.90;77.00;102106.16;5059052;28;45609;-66
2022/05/26 06:49:08;;;;;;;;;2.00;1.00;;;;;17.00;76.51;102106.69;5059058;28;45170;-66
2022/05/26 06:51:39;;;;;;;;;3.50;1.00;;;;;17.14;76.55;102106.25;5058752;28;45212;-66
2022/05/26 06:54:05;;;;;;;;;1.75;1.00;;;;;17.33;75.84;102113.47;5057580;28;45392;-66
2022/05/26 06:56:31;;;;;;;;;2.25;2.00;;;;;17.55;75.78;102107.50;5058969;28;45343;-66
2022/05/26 06:58:56;;;;;;;;;1.75;1.00;;;;;17.75;75.13;102107.69;5054144;28;45448;-67
2022/05/26 07:01:22;;;;;;;;;3.75;2.00;;;;;17.84;73.97;102107.38;5057410;28;45345;-67
2022/05/26 07:03:47;;;;;;;;;5.00;2.00;;;;;17.83;73.82;102113.53;5058984;28;45220;-66
2022/05/26 07:06:19;;;;;;;;;2.50;2.25;;;;;17.77;73.70;102119.00;5058572;28;45599;-66
2022/05/26 07:08:45;;;;;;;;;0.50;0.50;;;;;17.63;74.34;102108.09;5059199;28;45347;-66
2022/05/26 07:11:12;;;;;;;;;1.25;1.25;;;;;17.53;74.80;102120.69;5058975;28;45312;-67
2022/05/26 07:13:37;;;;;;;;;1.00;1.00;;;;;17.44;75.26;102117.53;5058842;28;45236;-67
2022/05/26 07:16:03;;;;;;;;;4.00;4.00;;;;;17.32;75.65;102132.78;5058736;28;48002;-67
2022/05/26 07:18:28;;;;;;;;;1.00;1.00;;;;;17.32;75.80;102135.41;5058732;27;45417;-67
2022/05/26 07:20:54;;;;;;;;;0.00;0.00;;;;;17.31;75.41;102132.84;5091095;27;45676;-66
2022/05/26 07:23:19;;;;;;;;;3.25;2.50;;;;;17.34;75.48;102136.22;5062046;28;45582;-67
2022/05/26 07:25:45;;;;;;;;;4.00;1.50;;;;;17.49;75.68;102132.22;5062131;28;46586;-67
2022/05/26 07:28:12;;;;;;;;;5.50;4.75;;;;;17.73;75.41;102137.56;5061828;28;45316;-66
2022/05/26 07:30:40;;;;;;;;;2.75;2.75;;;;;17.89;75.58;102144.03;5062119;28;45558;-67
2022/05/26 07:33:06;;;;;;;;;0.00;0.00;;;;;17.96;74.00;102132.34;5060079;28;45457;-67
2022/05/26 07:35:31;;;;;;;;;1.00;0.00;;;;;17.94;73.97;102144.69;5061588;28;45316;-66
2022/05/26 07:43:29;;;;;;;;;0.00;0.00;;;;;17.98;73.70;102167.34;5061353;28;45434;-66
2022/05/26 07:45:54;;;;;;;;;3.25;2.25;;;;;17.73;70.89;102167.34;5061868;28;45380;-66
2022/05/26 07:48:20;;;;;;;;;3.25;2.25;;;;;17.49;72.23;102162.91;5060422;28;45452;-66
2022/05/26 07:50:45;;;;;;;;;3.25;2.25;;;;;17.34;71.95;102170.38;5061562;28;45530;-66
2022/05/26 07:53:11;;;;;;;;;4.00;4.00;;;;;17.20;72.92;102174.34;5061680;28;45475;-67
2022/05/26 07:55:42;;;;;;;;;2.50;1.25;;;;;17.02;74.30;102183.72;5061636;28;46269;-67
2022/05/26 07:58:08;;;;;;;;;5.25;3.00;;;;;16.80;75.08;102190.50;5061236;28;45669;-66
2022/05/26 08:00:34;;;;;;;;;7.75;4.75;;;;;16.56;77.02;102182.41;5061875;28;45295;-67
2022/05/26 08:02:59;;;;;;;;;6.00;3.25;;;;;16.41;77.43;102177.59;5061220;28;45203;-65
2022/05/26 08:05:24;;;;;;;;;3.75;3.25;;;;;16.43;77.81;102181.94;5061044;28;46233;-65
2022/05/26 08:07:50;;;;;;;;;6.75;2.75;;;;;16.59;78.63;102191.97;5061268;28;45383;-67
2022/05/26 08:10:16;;;;;;;;;5.50;4.25;;;;;16.68;77.47;102192.59;5061704;28;45364;-65
2022/05/26 08:12:41;;;;;;;;;2.25;2.25;;;;;16.74;76.92;102202.06;5060825;28;45460;-66
2022/05/26 08:15:07;;;;;;;;;4.25;3.75;;;;;16.72;76.71;102199.47;5061050;28;46155;-65
2022/05/26 08:17:32;;;;;;;;;5.50;4.75;;;;;16.69;77.11;102203.97;5060949;28;45304;-64
2022/05/26 08:19:57;;;;;;;;;5.00;5.00;;;;;16.83;76.23;102206.19;5060844;28;45514;-66
2022/05/26 08:22:23;;;;;;;;;7.25;5.75;;;;;17.04;77.45;102205.53;5061219;28;45533;-65
2022/05/26 08:24:53;;;;;;;;;4.50;3.75;;;;;17.21;74.81;102210.22;5061293;28;45523;-66
2022/05/26 08:27:19;;;;;;;;;3.75;3.75;;;;;17.33;75.41;102201.97;5060654;28;45230;-65
2022/05/26 08:29:44;;;;;;;;;3.75;3.75;;;;;17.58;73.43;102208.13;5061356;28;45216;-65
2022/05/26 08:32:10;;;;;;;;;3.75;3.50;;;;;17.64;72.71;102209.72;5060280;28;45387;-67
2022/05/26 08:34:35;;;;;;;;;7.50;4.00;;;;;17.73;73.20;102208.56;5060576;28;45430;-66
2022/05/26 08:37:03;;;;;;;;;6.00;4.50;;;;;17.96;72.42;102205.16;5058970;28;45955;-67
2022/05/26 08:39:31;;;;;;;;;3.50;2.50;;;;;18.21;71.83;102205.97;5061033;28;45368;-66
2022/05/26 08:41:56;;;;;;;;;2.25;2.25;;;;;18.40;69.99;102199.13;5060505;28;45296;-66
2022/05/26 08:44:42;;;;;;;;;4.25;4.25;;;;;18.50;69.74;102197.03;5060576;28;45301;-67
2022/05/26 08:47:11;;;;;;;;;5.75;4.00;;;;;18.67;70.72;102202.56;5060562;28;45627;-66
2022/05/26 08:49:48;;;;;;;;;5.75;5.00;;;;;18.85;69.92;102201.00;5059602;28;45501;-65
2022/05/26 08:52:16;;;;;;;;;6.00;5.00;;;;;19.08;69.92;102216.78;5060949;28;45241;-65
2022/05/26 08:54:49;;;;;;;;;6.00;3.50;;;;;19.27;66.04;102210.78;5060350;28;46052;-66
2022/05/26 08:57:21;;;;;;;;;4.50;4.50;;;;;19.45;68.05;102215.28;5058404;28;45285;-65
2022/05/26 08:59:47;;;;;;;;;4.25;4.25;;;;;19.61;64.15;102216.38;5060554;28;45503;-66
2022/05/26 09:02:24;;;;;;;;;2.00;2.00;;;;;19.61;63.40;102219.03;5060637;28;45326;-67
2022/05/26 09:04:50;;;;;;;;;6.75;6.75;;;;;19.58;64.37;102210.38;5058840;28;46041;-64
2022/05/26 09:13:05;;;;;;;;;5.75;4.75;;;;;20.00;61.67;102212.97;5059828;28;45341;-65
2022/05/26 09:15:33;;;;;;;;;6.00;6.00;;;;;19.92;61.49;102218.59;5059986;28;45378;-64
2022/05/26 09:18:08;;;;;;;;;4.50;3.50;;;;;19.90;61.24;102224.88;5060529;28;45557;-65
2022/05/26 09:20:39;;;;;;;;;4.50;4.50;;;;;19.90;62.61;102224.88;5059922;28;45211;-65
2022/05/26 09:23:22;;;;;;;;;4.25;4.25;;;;;19.94;61.66;102229.09;5060308;28;45378;-63
2022/05/26 09:25:53;;;;;;;;;4.75;4.50;;;;;19.91;60.66;102229.22;5057988;28;45486;-66
2022/05/26 09:28:48;;;;;;;;;5.25;5.25;;;;;19.86;61.57;102232.06;5059936;28;45626;-65
2022/05/26 09:31:25;;;;;;;;;4.50;4.50;;;;;20.03;62.00;102240.13;5060467;28;45224;-65
2022/05/26 09:34:32;;;;;;;;;5.00;5.00;;;;;20.08;59.91;102228.50;5058144;28;45418;-66
2022/05/26 09:37:07;;;;;;;;;4.75;3.50;;;;;20.15;59.01;102237.84;5059553;28;45280;-66
2022/05/26 09:39:39;;;;;;;;;1.75;1.75;;;;;20.21;56.43;102243.72;5059825;28;45673;-70
2022/05/26 09:42:07;;;;;;;;;3.00;3.00;;;;;20.25;57.66;102249.75;5058927;28;45395;-66
2022/05/26 09:44:51;;;;;;;;;2.50;2.50;;;;;20.34;57.87;102251.97;5056759;28;45304;-67
2022/05/26 09:47:28;;;;;;;;;3.75;3.00;;;;;20.53;58.41;102249.38;5058552;28;45661;-68
2022/05/26 09:49:57;;;;;;;;;3.25;3.25;;;;;20.59;56.08;102255.25;5058510;28;45244;-64
2022/05/26 09:52:28;;;;;;;;;2.50;2.50;;;;;20.58;57.72;102247.41;5056949;28;45323;-62
2022/05/26 09:55:26;;;;;;;;;3.00;2.50;;;;;20.54;56.04;102251.09;5058937;28;45371;-61
2022/05/26 09:58:14;;;;;;;;;3.25;2.00;;;;;20.47;56.46;102254.97;5058405;28;45436;-63
2022/05/26 10:00:43;;;;;;;;;3.75;2.00;;;;;20.46;56.60;102254.09;5054779;28;45399;-61
2022/05/26 10:03:34;;;;;;;;;2.00;1.75;;;;;20.60;54.95;102250.81;5057628;28;45356;-62
2022/05/26 10:06:03;;;;;;;;;4.25;4.00;;;;;20.80;54.30;102253.41;5053924;28;45430;-61
2022/05/26 10:08:58;;;;;;;;;5.50;5.00;;;;;21.04;54.60;102250.56;5058951;28;45549;-62
2022/05/26 10:11:29;;;;;;;;;4.25;4.00;;;;;21.24;53.82;102254.00;5059158;28;45702;-63
2022/05/26 10:14:02;;;;;;;;;4.25;4.00;;;;;21.31;53.61;102259.84;5059140;28;46635;-63
2022/05/26 10:16:27;;;;;;;;;3.75;3.75;;;;;21.34;52.96;102254.41;5057538;28;46036;-64
2022/05/26 10:19:08;;;;;;;;;3.00;2.75;;;;;21.44;53.77;102260.97;5057271;28;46501;-63
2022/05/26 10:22:08;;;;;;;;;2.25;1.00;;;;;21.40;52.06;102264.69;5057229;28;45728;-65
2022/05/26 10:24:36;;;;;;;;;3.50;3.50;;;;;21.40;52.83;102269.13;5069241;27;45279;-68
2022/05/26 10:27:43;;;;;;;;;2.25;2.25;;;;;21.43;52.63;102274.28;5055423;28;45580;-66
2022/05/26 10:30:41;;;;;;;;;3.75;3.75;;;;;21.54;53.43;102275.47;5058966;28;46659;-60
2022/05/26 10:33:15;;;;;;;;;4.75;3.00;;;;;21.61;51.51;102270.72;5059105;28;45273;-57
2022/05/26 10:36:00;;;;;;;;;4.00;3.25;;;;;21.70;52.11;102262.34;5058351;28;45240;-61
2022/05/26 10:38:52;;;;;;;;;3.00;3.00;;;;;21.69;52.41;102270.34;5059031;28;45315;-57
2022/05/26 10:41:17;;;;;;;;;3.25;3.25;;;;;21.74;51.27;102263.03;5058528;28;46042;-58
2022/05/26 10:43:51;;;;;;;;;3.00;2.00;;;;;21.60;52.26;102255.75;5058650;28;45274;-62
2022/05/26 10:46:18;;;;;;;;;4.25;3.50;;;;;21.50;52.29;102262.47;5058762;28;45364;-57
2022/05/26 10:49:07;;;;;;;;;2.25;2.25;;;;;21.38;51.87;102263.91;5058690;28;45319;-55
2022/05/26 10:51:40;;;;;;;;;2.00;2.00;;;;;21.41;51.05;102269.03;5057761;28;45321;-56
2022/05/26 10:54:11;;;;;;;;;3.50;3.50;;;;;21.55;53.65;102266.59;5055834;28;45557;-56
2022/05/26 10:56:47;;;;;;;;;2.00;2.00;;;;;21.72;51.79;102262.25;5061502;28;45396;-64
2022/05/26 10:59:18;;;;;;;;;3.50;2.75;;;;;21.95;53.03;102269.03;5062381;28;45376;-54
2022/05/26 11:02:10;;;;;;;;;3.75;1.25;;;;;22.09;49.27;102259.50;5062488;28;46275;-55
2022/05/26 11:04:42;;;;;;;;;4.50;2.00;;;;;21.84;50.01;102259.00;5062156;28;45460;-55
2022/05/26 11:07:16;;;;;;;;;2.00;2.00;;;;;21.75;50.98;102262.94;5062756;28;45487;-54
2022/05/26 11:09:53;;;;;;;;;1.00;1.00;;;;;21.72;51.26;102257.81;5058353;28;45448;-53
2022/05/26 11:12:32;;;;;;;;;2.00;2.00;;;;;21.77;50.59;102265.53;5059011;28;46645;-58
2022/05/26 11:18:25;;;;;;;;;1.00;1.00;;;;;21.46;51.17;102269.69;5059273;28;45466;-63
2022/05/26 11:20:57;;;;;;;;;2.00;2.00;;;;;21.35;50.89;102255.25;5058088;28;45577;-63
2022/05/26 11:23:24;;;;;;;;;2.00;2.00;;;;;21.31;51.00;102259.84;5059334;28;46405;-61
2022/05/26 11:26:03;;;;;;;;;1.00;1.00;;;;;21.26;50.87;102251.28;5059720;28;45913;-62
2022/05/26 11:28:42;;;;;;;;;1.75;1.75;;;;;21.20;51.79;102257.66;5059134;28;45475;-61
2022/05/26 11:37:17;;;;;;;;;4.00;2.00;;;;;21.69;50.71;102251.81;5059809;28;45411;-63
2022/05/26 11:39:45;;;;;;;;;2.00;2.00;;;;;21.75;51.64;102246.22;5060058;28;45623;-64
2022/05/26 11:42:27;;;;;;;;;3.50;2.75;;;;;21.79;50.79;102243.31;5059852;28;45417;-63
2022/05/26 11:45:08;;;;;;;;;3.50;1.75;;;;;21.89;51.09;102242.88;5060841;28;45434;-62
2022/05/26 11:47:51;;;;;;;;;3.25;1.50;;;;;21.98;51.03;102237.97;5054585;28;45271;-62
2022/05/26 11:50:54;;;;;;;;;3.50;3.50;;;;;22.23;50.12;102239.38;5060643;28;45526;-63
2022/05/26 11:53:28;;;;;;;;;2.00;1.50;;;;;22.38;49.20;102228.81;5019134;28;45257;-62
2022/05/26 11:56:03;;;;;;;;;2.00;2.00;;;;;22.31;49.12;102245.97;5055445;28;46543;-62
2022/05/26 11:58:42;;;;;;;;;1.25;1.25;;;;;22.35;49.15;102246.66;5061089;28;45264;-62
2022/05/26 12:01:19;;;;;;;;;1.75;1.75;;;;;22.49;49.79;102243.28;5061596;28;45354;-63
2022/05/26 12:03:49;;;;;;;;;1.00;1.00;;;;;22.73;49.48;102240.16;5061715;28;45496;-63
2022/05/26 12:06:29;;;;;;;;;1.25;1.25;;;;;23.00;48.37;102236.94;5061504;28;46372;-65
2022/05/26 12:08:55;;;;;;;;;1.00;1.00;;;;;23.33;49.61;102235.06;5059973;28;45327;-62
2022/05/26 12:12:00;;;;;;;;;0.00;0.00;;;;;23.61;49.86;102230.81;5059845;28;45433;-54
2022/05/26 12:14:44;;;;;;;;;0.00;0.00;;;;;23.83;46.83;102225.97;5060976;28;45276;-55
2022/05/26 12:17:28;;;;;;;;;1.00;1.00;;;;;23.85;46.40;102224.09;5059007;28;46229;-54
2022/05/26 12:19:55;;;;;;;;;2.00;1.25;;;;;23.62;44.27;102214.81;5060706;28;45355;-55
2022/05/26 12:22:37;;;;;;;;;0.00;0.00;;;;;23.45;43.61;102217.59;5061144;28;45176;-60
2022/05/26 12:25:22;;;;;;;;;1.25;1.00;;;;;23.32;45.50;102224.53;5061340;28;45457;-60
2022/05/26 12:28:09;;;;;;;;;1.00;1.00;;;;;23.63;44.60;102221.00;5059332;28;48377;-66